Old Crow Airport
CYOC : rendu visible

Aérodrome :











RETROUVEZ-NOUS SUR...

 
LOGIN :

S'inscrire | Disclaimer

   EN    FR    IT 

 









Légende :    VFR   VFR Marginal   IFR   IFR Intensif   IFR Très Intensif
Visi : 
Plafond : 
>= 8 km
>= 3000ft
5 à 8 km
1000 à 3000 ft
1500m à 5 km
500 à 1000 ft
800 à 1500m
200 à 500 ft
< 800m
< 200 ft
Symboles :   Orages  Brouillard  Fortes neiges  Fortes précipitations  Vent > 20 kt






- Altitude de l'aérodrome : 824 ft
- Code IATA : YOC


CYOC - Old Crow

DERNIER METAR :
  • 051700Z 00000KT 35SM IC FEW034 FEW077 M38/M42 A3011 RMK SC2AC1 AC TR IC/FROIN SLP247

METARs EXPIRÉS :
  • 051600Z VRB02KT 35SM IC FEW034 FEW077 M38/M42 A3010 RMK SC2AC1 AC TR IC/FROIN SLP246
  • 051500Z 00000KT 35SM IC FEW034 FEW077 M38/M42 A3010 RMK SC2AC1 AC TR IC/FROIN SLP243

TAF TAF CYOC
Valide du 05 à 16h jusqu'au 06 à 02h UTC


051538Z 0516/0602 VRB03KT P6SM IC FEW040 FEW080
FM051700 VRB03KT P6SM SCT070
TEMPO 0517/0524 BKN060 RMK NXT FCST BY 051800Z



MET'MAP, la Météo Aéronautique d'un coup d'oeil ! - Copyright ORBIFLY Décembre 2007 - Disclaimer

ORBIFLY MET'MAP TEAM :

Programmation & Développement : Alexandra Zaïnal
Sur une idée originale de : Baudouin d'Aumeries
Assistance à la programmation : Marc-Olivier Méhu
Soutien technique & logistique : Manuel Goepfert

Contact : metmap@orbifly.com




SOURCES & CREDITS :

   NOAA       Earth
Advisory